Time;durP1;ratioP1;P1;durP2;ratioP2;P2;SDS_P1;SDS_P2;PMS_P1;PMS_P2;Temp;Humidity;BMP_temperature;BMP_pressure;BME280_temperature;BME280_humidity;BME280_pressure;Samples;Min_cycle;Max_cycle;Signal;HPM_P1;HPM_P2
2021/04/30 00:01:35;;;;;;;;;;;9.10;64.20;;;;;;4290123;33;20447;-77
2021/04/30 00:04:07;;;;;;;;;;;9.10;64.20;;;;;;4279168;33;34132;-77
2021/04/30 00:06:37;;;;;;;;;;;9.10;64.30;;;;;;4290322;33;45775;-77
2021/04/30 00:09:09;;;;;;;;;;;9.10;64.30;;;;;;4291555;33;20033;-77
2021/04/30 00:11:38;;;;;;;;;;;9.00;64.30;;;;;;4305152;33;20018;-77
2021/04/30 00:14:11;;;;;;;;;;;9.00;64.30;;;;;;4305075;33;20006;-77
2021/04/30 00:16:49;;;;;;;;;;;9.00;64.30;;;;;;4278956;33;34490;-77
2021/04/30 00:19:18;;;;;;;;;;;9.00;64.30;;;;;;4304453;33;20002;-77
2021/04/30 00:21:50;;;;;;;;;;;9.00;64.30;;;;;;4303372;33;38602;-77
2021/04/30 00:24:17;;;;;;;;;;;8.90;64.40;;;;;;4279890;33;20069;-77
2021/04/30 00:26:51;;;;;;;;;;;8.90;64.40;;;;;;4291498;33;20015;-77
2021/04/30 00:29:23;;;;;;;;;;;8.90;64.50;;;;;;4304223;33;20014;-77
2021/04/30 00:31:55;;;;;;;;;;;8.90;64.60;;;;;;4277943;33;43460;-77
2021/04/30 00:34:25;;;;;;;;;;;8.80;64.40;;;;;;4303814;33;33355;-77
2021/04/30 00:36:54;;;;;;;;;;;8.80;64.50;;;;;;4291476;33;20143;-77
2021/04/30 00:39:24;;;;;;;;;;;8.80;64.50;;;;;;4303898;33;27179;-77
2021/04/30 00:41:54;;;;;;;;;;;8.80;64.60;;;;;;4291468;33;20033;-77
2021/04/30 00:44:26;;;;;;;;;;;8.80;64.40;;;;;;4304651;33;20392;-77
2021/04/30 00:47:01;;;;;;;;;;;8.80;64.40;;;;;;4303846;33;20465;-77
2021/04/30 00:49:33;;;;;;;;;;;8.70;64.40;;;;;;4303507;33;44344;-77
2021/04/30 00:52:08;;;;;;;;;;;8.70;64.50;;;;;;4304384;33;20048;-77
2021/04/30 00:54:40;;;;;;;;;;;8.70;64.50;;;;;;4303465;33;41310;-77
2021/04/30 00:57:12;;;;;;;;;;;8.70;64.50;;;;;;4290167;33;39285;-77
2021/04/30 00:59:45;;;;;;;;;;;8.60;64.40;;;;;;4277894;33;45829;-77
2021/04/30 01:02:20;;;;;;;;;;;8.60;64.60;;;;;;4289419;33;45704;-77
2021/04/30 01:04:47;;;;;;;;;;;8.60;64.70;;;;;;4303564;33;27385;-76
2021/04/30 01:07:17;;;;;;;;;;;8.60;64.70;;;;;;4303056;33;39922;-77
2021/04/30 01:09:52;;;;;;;;;;;8.60;64.60;;;;;;4279370;33;20006;-77
2021/04/30 01:12:24;;;;;;;;;;;8.60;64.60;;;;;;4291218;33;20056;-77
2021/04/30 01:14:54;;;;;;;;;;;8.60;64.60;;;;;;4303065;33;39785;-77
2021/04/30 01:17:30;;;;;;;;;;;8.60;64.80;;;;;;4304210;33;20002;-77
2021/04/30 01:19:59;;;;;;;;;;;8.50;64.60;;;;;;4290259;33;31757;-77
2021/04/30 01:22:45;;;;;;;;;;;8.50;64.60;;;;;;4290805;33;20002;-77
2021/04/30 01:25:13;;;;;;;;;;;8.50;64.60;;;;;;4289626;33;44324;-77
2021/04/30 01:27:43;;;;;;;;;;;8.50;64.70;;;;;;4289294;33;41381;-77
2021/04/30 01:30:17;;;;;;;;;;;8.50;64.70;;;;;;4304002;33;20018;-77
2021/04/30 01:32:46;;;;;;;;;;;8.50;64.50;;;;;;4290841;33;20016;-77
2021/04/30 01:35:18;;;;;;;;;;;8.50;64.50;;;;;;4304206;33;20443;-77
2021/04/30 01:37:52;;;;;;;;;;;8.50;64.40;;;;;;4290949;33;20416;-77
2021/04/30 01:40:25;;;;;;;;;;;8.50;64.40;;;;;;4290781;33;20011;-77
2021/04/30 01:43:22;;;;;;;;;;;8.50;64.30;;;;;;4303879;33;20395;-77
2021/04/30 01:45:53;;;;;;;;;;;8.50;64.40;;;;;;4287779;33;45063;-77
2021/04/30 01:48:26;;;;;;;;;;;8.50;64.40;;;;;;4290837;33;20024;-77
2021/04/30 01:51:03;;;;;;;;;;;8.40;64.40;;;;;;4290509;33;20010;-77
2021/04/30 01:53:34;;;;;;;;;;;8.40;64.40;;;;;;4302397;33;44345;-77
2021/04/30 01:56:08;;;;;;;;;;;8.40;64.50;;;;;;4289299;33;44883;-76
2021/04/30 01:58:41;;;;;;;;;;;8.40;64.50;;;;;;4288352;33;46826;-77
2021/04/30 02:01:11;;;;;;;;;;;8.40;64.50;;;;;;4277406;33;42384;-77
2021/04/30 02:03:40;;;;;;;;;;;8.40;64.60;;;;;;4288666;33;43197;-77
2021/04/30 02:06:07;;;;;;;;;;;8.40;64.50;;;;;;4288937;33;38764;-77
2021/04/30 02:08:36;;;;;;;;;;;8.30;64.60;;;;;;4289584;33;20012;-77
2021/04/30 02:11:06;;;;;;;;;;;8.30;64.60;;;;;;4278405;33;20012;-77
2021/04/30 02:13:38;;;;;;;;;;;8.40;64.70;;;;;;4303126;33;20074;-77
2021/04/30 02:16:08;;;;;;;;;;;8.30;64.60;;;;;;4290349;33;20093;-77
2021/04/30 02:18:37;;;;;;;;;;;8.30;64.60;;;;;;4302085;33;39463;-77
2021/04/30 02:21:07;;;;;;;;;;;8.30;64.50;;;;;;4302879;33;20006;-77
2021/04/30 02:23:39;;;;;;;;;;;8.30;64.60;;;;;;4302943;33;22242;-77
2021/04/30 02:26:16;;;;;;;;;;;8.30;64.70;;;;;;4289379;33;20014;-77
2021/04/30 02:28:48;;;;;;;;;;;8.30;64.70;;;;;;4288920;33;43619;-77
2021/04/30 02:31:18;;;;;;;;;;;8.20;64.80;;;;;;4301962;33;41672;-77
2021/04/30 02:33:50;;;;;;;;;;;8.20;64.90;;;;;;4289045;33;28906;-77
2021/04/30 02:36:26;;;;;;;;;;;8.20;64.90;;;;;;4288864;33;38488;-77
2021/04/30 02:38:58;;;;;;;;;;;8.20;65.00;;;;;;4289974;33;20003;-77
2021/04/30 02:41:35;;;;;;;;;;;8.20;65.00;;;;;;4303064;33;20103;-77
2021/04/30 02:44:09;;;;;;;;;;;8.20;65.10;;;;;;4278084;33;19999;-77
2021/04/30 02:46:39;;;;;;;;;;;8.20;65.10;;;;;;4276872;33;46109;-77
2021/04/30 02:49:14;;;;;;;;;;;8.20;65.10;;;;;;4289766;33;20044;-77
2021/04/30 02:51:46;;;;;;;;;;;8.10;65.20;;;;;;4276581;33;38652;-77
2021/04/30 02:54:18;;;;;;;;;;;8.10;65.20;;;;;;4289304;33;20439;-77
2021/04/30 02:56:51;;;;;;;;;;;8.10;65.40;;;;;;4302965;33;20069;-77
2021/04/30 02:59:23;;;;;;;;;;;8.00;65.60;;;;;;4302940;33;20025;-77
2021/04/30 03:01:50;;;;;;;;;;;8.00;65.70;;;;;;4288254;33;40050;-76
2021/04/30 03:04:25;;;;;;;;;;;8.00;65.90;;;;;;4302894;33;20089;-76
2021/04/30 03:06:58;;;;;;;;;;;8.00;66.10;;;;;;4302614;33;20006;-76
2021/04/30 03:09:30;;;;;;;;;;;8.00;66.10;;;;;;4302363;33;28355;-77
2021/04/30 03:12:02;;;;;;;;;;;8.00;66.30;;;;;;4294496;33;19998;-76
2021/04/30 03:14:35;;;;;;;;;;;8.00;66.40;;;;;;4281894;33;38781;-76
2021/04/30 03:17:04;;;;;;;;;;;8.00;66.50;;;;;;4307526;33;20053;-76
2021/04/30 03:19:39;;;;;;;;;;;8.00;66.40;;;;;;4294072;33;20015;-77
2021/04/30 03:22:06;;;;;;;;;;;8.00;66.60;;;;;;4281403;33;26347;-77
2021/04/30 03:24:37;;;;;;;;;;;7.90;66.60;;;;;;4281185;33;44052;-76
2021/04/30 03:27:12;;;;;;;;;;;7.90;66.90;;;;;;4307350;33;20010;-76
2021/04/30 03:29:42;;;;;;;;;;;7.90;67.10;;;;;;4293634;33;33190;-77
2021/04/30 03:32:14;;;;;;;;;;;8.00;67.30;;;;;;4293358;33;22524;-77
2021/04/30 03:34:46;;;;;;;;;;;8.00;67.30;;;;;;4293683;33;27423;-77
2021/04/30 03:37:19;;;;;;;;;;;7.90;67.30;;;;;;4281262;33;42180;-77
2021/04/30 03:39:49;;;;;;;;;;;8.00;67.40;;;;;;4293575;33;21631;-76
2021/04/30 03:42:21;;;;;;;;;;;8.00;67.40;;;;;;4293750;33;20020;-77
2021/04/30 03:44:53;;;;;;;;;;;8.00;67.60;;;;;;4306295;33;32875;-77
2021/04/30 03:47:23;;;;;;;;;;;8.00;67.70;;;;;;4293505;33;35770;-77
2021/04/30 03:49:56;;;;;;;;;;;7.90;67.80;;;;;;4280870;33;46583;-77
2021/04/30 03:52:25;;;;;;;;;;;7.90;68.00;;;;;;4282318;33;20003;-76
2021/04/30 03:55:01;;;;;;;;;;;7.90;68.10;;;;;;4294297;33;20070;-77
2021/04/30 03:57:30;;;;;;;;;;;7.90;68.20;;;;;;4293481;33;31452;-76
2021/04/30 04:00:03;;;;;;;;;;;7.90;68.40;;;;;;4306252;33;33689;-77
2021/04/30 04:02:37;;;;;;;;;;;7.90;68.60;;;;;;4292886;33;29221;-77
2021/04/30 04:05:09;;;;;;;;;;;7.90;68.70;;;;;;4282310;33;20050;-77
2021/04/30 04:07:40;;;;;;;;;;;7.90;68.70;;;;;;4307318;33;20062;-77
2021/04/30 04:10:17;;;;;;;;;;;7.90;68.90;;;;;;4294165;33;20443;-77
2021/04/30 04:12:53;;;;;;;;;;;7.90;68.90;;;;;;4306717;33;21341;-77
2021/04/30 04:15:25;;;;;;;;;;;7.90;69.10;;;;;;4293197;33;30450;-76
2021/04/30 04:17:55;;;;;;;;;;;7.90;69.10;;;;;;4293187;33;30233;-77
2021/04/30 04:20:28;;;;;;;;;;;7.90;69.40;;;;;;4293806;33;20002;-77
2021/04/30 04:23:03;;;;;;;;;;;7.90;69.30;;;;;;4291227;33;20037;-76
2021/04/30 04:25:32;;;;;;;;;;;7.90;69.40;;;;;;4290788;33;32910;-77
2021/04/30 04:28:01;;;;;;;;;;;7.90;69.30;;;;;;4304568;33;20044;-77
2021/04/30 04:30:31;;;;;;;;;;;7.90;69.40;;;;;;4291592;33;20113;-77
2021/04/30 04:33:03;;;;;;;;;;;7.90;69.70;;;;;;4291193;33;20113;-77
2021/04/30 04:35:35;;;;;;;;;;;7.90;69.80;;;;;;4304663;33;20022;-77
2021/04/30 04:38:05;;;;;;;;;;;7.90;69.80;;;;;;4304150;33;24700;-77
2021/04/30 04:40:37;;;;;;;;;;;7.90;70.00;;;;;;4291662;33;20011;-77
2021/04/30 04:43:07;;;;;;;;;;;7.90;70.10;;;;;;4291614;33;20049;-77
2021/04/30 04:45:33;;;;;;;;;;;7.90;70.40;;;;;;4291147;33;20435;-77
2021/04/30 04:48:09;;;;;;;;;;;7.80;70.40;;;;;;4279724;33;19999;-77
2021/04/30 04:50:43;;;;;;;;;;;7.80;70.70;;;;;;4304596;33;20065;-77
2021/04/30 04:53:23;;;;;;;;;;;7.80;70.70;;;;;;4292138;33;30059;-77
2021/04/30 04:56:09;;;;;;;;;;;7.80;70.80;;;;;;4281170;33;20010;-77
2021/04/30 04:58:35;;;;;;;;;;;7.80;71.20;;;;;;4290010;33;40919;-77
2021/04/30 05:01:04;;;;;;;;;;;7.80;71.20;;;;;;4290284;33;41885;-77
2021/04/30 05:03:34;;;;;;;;;;;7.80;71.60;;;;;;4290732;33;20438;-77
2021/04/30 05:06:06;;;;;;;;;;;7.80;71.50;;;;;;4290187;33;31427;-77
2021/04/30 05:08:41;;;;;;;;;;;7.90;71.40;;;;;;4279234;33;20002;-77
2021/04/30 05:11:14;;;;;;;;;;;7.80;71.60;;;;;;4304333;33;20014;-77
2021/04/30 05:13:47;;;;;;;;;;;7.90;71.80;;;;;;4277817;33;41720;-77
2021/04/30 05:16:16;;;;;;;;;;;7.80;71.70;;;;;;4304029;33;20018;-77
2021/04/30 05:18:48;;;;;;;;;;;7.80;71.90;;;;;;4291262;33;20010;-77
2021/04/30 05:21:18;;;;;;;;;;;7.80;72.00;;;;;;4302987;33;24055;-77
2021/04/30 05:23:48;;;;;;;;;;;7.80;72.00;;;;;;4278562;33;20012;-77
2021/04/30 05:26:26;;;;;;;;;;;7.80;72.30;;;;;;4290524;33;20054;-77
2021/04/30 05:28:56;;;;;;;;;;;7.80;72.30;;;;;;4304013;33;20044;-77
2021/04/30 05:31:28;;;;;;;;;;;7.70;72.40;;;;;;4290609;33;20069;-77
2021/04/30 05:34:00;;;;;;;;;;;7.70;72.60;;;;;;4289567;33;32848;-76
2021/04/30 05:36:32;;;;;;;;;;;7.70;72.60;;;;;;4289810;33;38203;-77
2021/04/30 05:39:05;;;;;;;;;;;7.70;73.20;;;;;;4289970;33;32910;-77
2021/04/30 05:41:34;;;;;;;;;;;7.70;73.30;;;;;;4289853;33;34577;-77
2021/04/30 05:44:04;;;;;;;;;;;7.70;73.20;;;;;;4289647;33;39208;-77
2021/04/30 05:46:34;;;;;;;;;;;7.70;73.40;;;;;;4303276;33;20073;-77
2021/04/30 05:49:10;;;;;;;;;;;7.80;73.50;;;;;;4290242;33;20493;-77
2021/04/30 05:51:42;;;;;;;;;;;7.70;73.20;;;;;;4289729;33;37639;-77
2021/04/30 05:54:16;;;;;;;;;;;7.80;73.40;;;;;;4302295;33;44675;-77
2021/04/30 05:56:53;;;;;;;;;;;7.70;73.40;;;;;;4289928;33;20522;-77
2021/04/30 05:59:25;;;;;;;;;;;7.70;73.60;;;;;;4302516;33;42445;-77
2021/04/30 06:01:54;;;;;;;;;;;7.80;73.90;;;;;;4303203;33;20011;-77
2021/04/30 06:04:28;;;;;;;;;;;7.80;73.80;;;;;;4278734;33;20006;-77
2021/04/30 06:06:59;;;;;;;;;;;7.80;73.80;;;;;;4290644;33;20400;-77
2021/04/30 06:09:34;;;;;;;;;;;7.80;74.00;;;;;;4303631;33;20029;-77
2021/04/30 06:12:06;;;;;;;;;;;7.80;74.10;;;;;;4303329;33;20024;-77
2021/04/30 06:14:39;;;;;;;;;;;7.80;74.10;;;;;;4302175;33;44666;-77
2021/04/30 06:17:13;;;;;;;;;;;7.70;74.20;;;;;;4302610;33;26899;-77
2021/04/30 06:19:48;;;;;;;;;;;7.70;74.60;;;;;;4290405;33;20003;-77
2021/04/30 06:22:23;;;;;;;;;;;7.80;74.50;;;;;;4289672;33;31234;-77
2021/04/30 06:24:55;;;;;;;;;;;7.70;74.60;;;;;;4301912;33;40930;-77
2021/04/30 06:27:28;;;;;;;;;;;7.80;74.80;;;;;;4290013;33;20018;-76
2021/04/30 06:29:58;;;;;;;;;;;7.80;74.80;;;;;;4302212;33;43127;-77
2021/04/30 06:32:31;;;;;;;;;;;7.80;74.90;;;;;;4289395;33;20113;-77
2021/04/30 06:35:06;;;;;;;;;;;7.80;75.00;;;;;;4277882;33;20447;-77
2021/04/30 06:37:37;;;;;;;;;;;7.80;74.90;;;;;;4276979;33;36412;-77
2021/04/30 06:40:08;;;;;;;;;;;7.80;75.00;;;;;;4276946;33;38377;-77
2021/04/30 06:42:40;;;;;;;;;;;7.90;75.20;;;;;;4302825;33;20416;-77
2021/04/30 06:45:19;;;;;;;;;;;7.90;75.30;;;;;;4289642;33;20005;-77
2021/04/30 06:47:52;;;;;;;;;;;7.90;75.10;;;;;;4276652;33;45926;-77
2021/04/30 06:50:24;;;;;;;;;;;7.90;75.10;;;;;;4301411;33;41448;-77
2021/04/30 06:52:56;;;;;;;;;;;7.90;75.30;;;;;;4302103;33;37100;-77
2021/04/30 06:55:29;;;;;;;;;;;7.90;75.20;;;;;;4277400;33;20041;-77
2021/04/30 06:58:02;;;;;;;;;;;7.90;75.70;;;;;;4290045;33;20028;-77
2021/04/30 07:00:32;;;;;;;;;;;7.90;75.70;;;;;;4289187;33;33587;-77
2021/04/30 07:03:02;;;;;;;;;;;7.90;75.60;;;;;;4289201;33;20076;-77
2021/04/30 07:05:31;;;;;;;;;;;8.00;75.50;;;;;;4289183;33;20012;-77
2021/04/30 07:08:04;;;;;;;;;;;8.00;75.50;;;;;;4303008;33;20070;-77
2021/04/30 07:10:36;;;;;;;;;;;8.00;75.60;;;;;;4289068;33;38108;-77
2021/04/30 07:13:14;;;;;;;;;;;8.00;75.60;;;;;;4302314;33;19998;-77
2021/04/30 07:15:46;;;;;;;;;;;8.00;75.70;;;;;;4290035;33;20474;-77
2021/04/30 07:18:22;;;;;;;;;;;7.90;75.60;;;;;;4301610;33;44447;-77
2021/04/30 07:20:54;;;;;;;;;;;8.00;76.20;;;;;;4289429;33;20025;-77
2021/04/30 07:23:26;;;;;;;;;;;8.00;75.90;;;;;;4301417;33;40747;-77
2021/04/30 07:25:56;;;;;;;;;;;8.00;75.80;;;;;;4288278;33;40506;-77
2021/04/30 07:28:26;;;;;;;;;;;8.00;76.00;;;;;;4301578;33;34324;-77
2021/04/30 07:30:59;;;;;;;;;;;8.00;76.00;;;;;;4277402;33;20463;-77
2021/04/30 07:33:31;;;;;;;;;;;8.00;76.00;;;;;;4277173;33;20009;-77
2021/04/30 07:36:07;;;;;;;;;;;8.00;76.00;;;;;;4289029;33;42592;-77
2021/04/30 07:38:42;;;;;;;;;;;8.00;76.10;;;;;;4289680;33;20005;-77
2021/04/30 07:41:15;;;;;;;;;;;8.00;76.10;;;;;;4289170;33;20542;-77
2021/04/30 07:43:44;;;;;;;;;;;8.10;76.30;;;;;;4289765;33;20054;-77
2021/04/30 07:46:14;;;;;;;;;;;8.10;76.30;;;;;;4289110;33;20002;-77
2021/04/30 07:48:43;;;;;;;;;;;8.10;76.10;;;;;;4288921;33;20446;-77
2021/04/30 07:51:10;;;;;;;;;;;8.10;76.00;;;;;;4289290;33;20006;-77
2021/04/30 07:53:42;;;;;;;;;;;8.10;76.20;;;;;;4277060;33;20356;-77
2021/04/30 07:56:12;;;;;;;;;;;8.10;76.20;;;;;;4276457;33;35739;-77
2021/04/30 07:58:42;;;;;;;;;;;8.10;76.30;;;;;;4292040;33;20430;-77
2021/04/30 08:01:17;;;;;;;;;;;8.10;76.30;;;;;;4278816;33;46522;-77
2021/04/30 08:03:44;;;;;;;;;;;8.10;76.30;;;;;;4288949;33;20030;-77
2021/04/30 08:06:14;;;;;;;;;;;8.10;76.20;;;;;;4289291;33;20033;-77
2021/04/30 08:08:44;;;;;;;;;;;8.20;76.40;;;;;;4289215;33;20347;-77
2021/04/30 08:11:16;;;;;;;;;;;8.20;76.90;;;;;;4289846;33;28763;-77
2021/04/30 08:13:48;;;;;;;;;;;8.20;76.80;;;;;;4290099;33;20058;-77
2021/04/30 08:16:26;;;;;;;;;;;8.20;76.60;;;;;;4277879;33;20455;-77
2021/04/30 08:19:00;;;;;;;;;;;8.20;76.50;;;;;;4288425;33;40521;-77
2021/04/30 08:21:30;;;;;;;;;;;8.20;76.50;;;;;;4288190;33;27760;-77
2021/04/30 08:24:02;;;;;;;;;;;8.20;76.50;;;;;;4288605;33;31744;-77
2021/04/30 08:26:32;;;;;;;;;;;8.20;76.70;;;;;;4288383;33;38078;-77
2021/04/30 08:29:02;;;;;;;;;;;8.20;76.60;;;;;;4290663;33;20447;-77
2021/04/30 08:31:32;;;;;;;;;;;8.30;76.80;;;;;;4288616;33;20069;-77
2021/04/30 08:34:04;;;;;;;;;;;8.30;76.70;;;;;;4287830;33;41835;-77
2021/04/30 08:36:32;;;;;;;;;;;8.30;77.00;;;;;;4287836;33;44400;-77
2021/04/30 08:39:04;;;;;;;;;;;8.30;77.20;;;;;;4289679;33;20675;-77
2021/04/30 08:41:39;;;;;;;;;;;8.30;77.00;;;;;;4290260;33;20030;-77
2021/04/30 08:44:14;;;;;;;;;;;8.30;77.00;;;;;;4290459;33;20032;-76
2021/04/30 08:46:46;;;;;;;;;;;8.30;77.10;;;;;;4289437;33;31359;-77
2021/04/30 08:49:16;;;;;;;;;;;8.30;77.70;;;;;;4277210;33;20062;-77
2021/04/30 08:51:51;;;;;;;;;;;8.30;76.40;;;;;;4288128;33;41307;-77
2021/04/30 08:54:19;;;;;;;;;;;8.40;76.20;;;;;;4288402;33;35111;-77
2021/04/30 08:56:51;;;;;;;;;;;8.40;76.40;;;;;;4288212;33;41933;-77
2021/04/30 08:59:23;;;;;;;;;;;8.40;76.50;;;;;;4290549;33;20057;-77
2021/04/30 09:01:53;;;;;;;;;;;8.40;76.80;;;;;;4288871;33;20009;-77
2021/04/30 09:04:26;;;;;;;;;;;8.40;76.60;;;;;;4288371;33;20017;-77
2021/04/30 09:07:10;;;;;;;;;;;8.40;76.30;;;;;;4289456;33;20059;-77
2021/04/30 09:09:40;;;;;;;;;;;8.40;76.00;;;;;;4289561;33;20412;-77
2021/04/30 09:12:16;;;;;;;;;;;8.40;75.70;;;;;;4289305;33;20014;-77
2021/04/30 09:14:55;;;;;;;;;;;8.50;75.50;;;;;;4290756;33;20400;-77
2021/04/30 09:17:22;;;;;;;;;;;8.40;75.40;;;;;;4290489;33;20172;-76
2021/04/30 09:19:59;;;;;;;;;;;8.50;75.50;;;;;;4290427;33;20109;-77
2021/04/30 09:22:30;;;;;;;;;;;8.50;75.40;;;;;;4290233;33;20371;-76
2021/04/30 09:25:12;;;;;;;;;;;8.50;75.50;;;;;;4290561;33;20033;-77
2021/04/30 09:27:45;;;;;;;;;;;8.50;75.50;;;;;;4289348;33;31205;-77
2021/04/30 09:30:21;;;;;;;;;;;8.50;75.50;;;;;;4291395;33;20011;-77
2021/04/30 09:33:02;;;;;;;;;;;8.50;75.40;;;;;;4277377;33;37661;-76
2021/04/30 09:35:38;;;;;;;;;;;8.60;75.20;;;;;;4290743;33;20018;-77
2021/04/30 09:38:24;;;;;;;;;;;8.60;75.10;;;;;;4291792;33;20018;-77
2021/04/30 09:41:12;;;;;;;;;;;8.60;74.90;;;;;;4290955;33;43600;-77
2021/04/30 09:43:51;;;;;;;;;;;8.60;74.90;;;;;;4289011;33;44635;-77
2021/04/30 09:46:36;;;;;;;;;;;8.70;75.20;;;;;;4289946;33;44630;-77
2021/04/30 09:49:05;;;;;;;;;;;8.70;75.00;;;;;;4277344;33;43448;-76
2021/04/30 09:51:42;;;;;;;;;;;8.70;74.80;;;;;;4290042;33;44444;-77
2021/04/30 09:54:15;;;;;;;;;;;8.70;74.90;;;;;;4290103;33;20021;-76
2021/04/30 09:56:47;;;;;;;;;;;8.70;74.90;;;;;;4291319;33;20026;-77
2021/04/30 09:59:44;;;;;;;;;;;8.70;74.90;;;;;;4281274;33;20006;-76
2021/04/30 10:02:21;;;;;;;;;;;8.70;75.00;;;;;;4291543;33;20050;-76
2021/04/30 10:04:56;;;;;;;;;;;8.70;75.60;;;;;;4306270;33;20003;-77
2021/04/30 10:07:32;;;;;;;;;;;8.70;74.80;;;;;;4293852;33;20070;-76
2021/04/30 10:10:09;;;;;;;;;;;8.80;75.00;;;;;;4306452;33;20124;-76
2021/04/30 10:12:47;;;;;;;;;;;8.80;74.90;;;;;;4293630;33;20048;-76
2021/04/30 10:15:20;;;;;;;;;;;8.80;74.60;;;;;;4294162;33;20013;-78
2021/04/30 10:18:00;;;;;;;;;;;8.80;74.60;;;;;;4295280;33;20046;-76
2021/04/30 10:20:32;;;;;;;;;;;8.80;74.50;;;;;;4306995;33;20002;-76
2021/04/30 10:23:06;;;;;;;;;;;8.90;74.50;;;;;;4284204;33;19999;-77
2021/04/30 10:25:35;;;;;;;;;;;8.90;74.70;;;;;;4312224;33;20022;-77
2021/04/30 10:28:14;;;;;;;;;;;8.90;74.70;;;;;;4313895;33;20051;-76
2021/04/30 10:31:05;;;;;;;;;;;9.00;74.60;;;;;;4294910;33;26794;-76
2021/04/30 10:33:31;;;;;;;;;;;9.00;74.90;;;;;;4293160;33;36227;-77
2021/04/30 10:36:06;;;;;;;;;;;9.00;74.40;;;;;;4300722;33;20020;-76
2021/04/30 10:38:44;;;;;;;;;;;9.00;74.40;;;;;;4303394;33;20065;-77
2021/04/30 10:41:16;;;;;;;;;;;9.00;74.20;;;;;;4305952;33;20046;-78
2021/04/30 10:44:06;;;;;;;;;;;9.00;74.00;;;;;;4300907;33;20033;-77
2021/04/30 10:46:38;;;;;;;;;;;9.00;74.00;;;;;;4303376;33;20017;-78
2021/04/30 10:49:21;;;;;;;;;;;9.00;73.90;;;;;;4319134;33;20021;-76
2021/04/30 10:52:06;;;;;;;;;;;9.10;74.00;;;;;;4317153;33;44239;-77
2021/04/30 10:54:37;;;;;;;;;;;9.10;73.90;;;;;;4298293;33;37752;-77
2021/04/30 10:57:07;;;;;;;;;;;9.10;73.80;;;;;;4302737;33;31214;-77
2021/04/30 10:59:49;;;;;;;;;;;9.10;73.80;;;;;;4313308;33;20014;-77
2021/04/30 11:02:24;;;;;;;;;;;9.10;73.70;;;;;;4282566;33;20008;-77
2021/04/30 11:05:05;;;;;;;;;;;9.20;73.70;;;;;;4301456;33;20006;-77
2021/04/30 11:07:37;;;;;;;;;;;9.20;73.50;;;;;;4298931;33;44914;-77
2021/04/30 11:10:20;;;;;;;;;;;9.20;73.50;;;;;;4302160;33;20014;-77
2021/04/30 11:13:15;;;;;;;;;;;9.20;73.50;;;;;;4300424;33;38457;-76
2021/04/30 11:15:45;;;;;;;;;;;9.30;73.40;;;;;;4302167;33;30604;-77
2021/04/30 11:18:19;;;;;;;;;;;9.30;73.30;;;;;;4287465;33;33735;-78
2021/04/30 11:21:08;;;;;;;;;;;9.30;73.30;;;;;;4301220;33;43612;-77
2021/04/30 11:23:42;;;;;;;;;;;9.30;73.30;;;;;;4314145;33;43747;-77
2021/04/30 11:26:15;;;;;;;;;;;9.30;73.40;;;;;;4290631;33;20021;-77
2021/04/30 11:29:02;;;;;;;;;;;9.30;73.20;;;;;;4289005;33;20011;-77
2021/04/30 11:31:35;;;;;;;;;;;9.30;73.10;;;;;;4316985;33;24173;-78
2021/04/30 11:34:19;;;;;;;;;;;9.30;73.00;;;;;;4305759;33;28568;-77
2021/04/30 11:36:55;;;;;;;;;;;9.30;73.00;;;;;;4293515;33;20024;-77
2021/04/30 11:39:22;;;;;;;;;;;9.30;73.00;;;;;;4291449;33;43704;-77
2021/04/30 11:41:57;;;;;;;;;;;9.30;73.30;;;;;;4303694;33;20010;-77
2021/04/30 11:44:30;;;;;;;;;;;9.40;73.50;;;;;;4304427;33;20002;-77
2021/04/30 11:47:02;;;;;;;;;;;9.40;73.50;;;;;;4283711;33;38245;-78
2021/04/30 11:49:37;;;;;;;;;;;9.40;73.30;;;;;;4296852;33;20006;-79
2021/04/30 11:52:11;;;;;;;;;;;9.50;73.10;;;;;;4281023;33;20041;-79
2021/04/30 11:54:43;;;;;;;;;;;9.50;72.90;;;;;;4291246;33;44482;-79
2021/04/30 11:57:13;;;;;;;;;;;9.50;72.70;;;;;;4292394;33;20483;-79
2021/04/30 11:59:45;;;;;;;;;;;9.60;72.60;;;;;;4305209;33;20518;-79
2021/04/30 12:02:27;;;;;;;;;;;9.50;72.30;;;;;;4303911;33;35731;-79
2021/04/30 12:04:55;;;;;;;;;;;9.60;72.30;;;;;;4290752;33;43722;-79
2021/04/30 12:07:38;;;;;;;;;;;9.60;72.30;;;;;;4304189;33;39442;-79
2021/04/30 12:10:17;;;;;;;;;;;9.60;72.30;;;;;;4278838;33;43950;-79
2021/04/30 12:12:46;;;;;;;;;;;9.60;72.20;;;;;;4304265;33;37566;-79
2021/04/30 12:15:16;;;;;;;;;;;9.60;72.20;;;;;;4278921;33;21164;-79
2021/04/30 12:17:45;;;;;;;;;;;9.60;72.10;;;;;;4303716;33;44697;-79
2021/04/30 12:20:16;;;;;;;;;;;9.60;72.10;;;;;;4289435;33;31288;-79
2021/04/30 12:22:55;;;;;;;;;;;9.60;72.10;;;;;;4291455;33;20018;-78
2021/04/30 12:25:41;;;;;;;;;;;9.60;72.10;;;;;;4280622;33;20017;-79
2021/04/30 12:28:27;;;;;;;;;;;9.60;72.10;;;;;;4290249;33;42051;-78
2021/04/30 12:30:58;;;;;;;;;;;9.70;72.10;;;;;;4291625;33;20014;-78
2021/04/30 12:33:34;;;;;;;;;;;9.70;72.20;;;;;;4304694;33;20030;-79
2021/04/30 12:36:14;;;;;;;;;;;9.70;72.30;;;;;;4291833;33;20058;-79
2021/04/30 12:38:48;;;;;;;;;;;9.70;72.30;;;;;;4290742;33;39128;-79
2021/04/30 12:41:23;;;;;;;;;;;9.80;72.40;;;;;;4303788;33;43889;-78
2021/04/30 12:43:55;;;;;;;;;;;9.80;72.30;;;;;;4302812;33;43819;-79
2021/04/30 12:46:23;;;;;;;;;;;9.90;72.00;;;;;;4291956;33;20400;-79
2021/04/30 12:49:07;;;;;;;;;;;9.90;72.00;;;;;;4304802;33;20002;-79
2021/04/30 12:51:38;;;;;;;;;;;10.00;71.90;;;;;;4291265;33;20392;-79
2021/04/30 12:54:14;;;;;;;;;;;10.00;71.40;;;;;;4290281;33;31273;-79
2021/04/30 12:56:53;;;;;;;;;;;10.00;71.20;;;;;;4303849;33;31503;-78
2021/04/30 12:59:25;;;;;;;;;;;10.00;71.10;;;;;;4303527;33;36229;-79
2021/04/30 13:02:14;;;;;;;;;;;10.10;70.80;;;;;;4279492;33;20403;-79
2021/04/30 13:04:45;;;;;;;;;;;10.10;70.60;;;;;;4303134;33;45027;-79
2021/04/30 13:07:15;;;;;;;;;;;10.10;70.60;;;;;;4304266;33;20021;-79
2021/04/30 13:09:50;;;;;;;;;;;10.10;70.60;;;;;;4291630;33;20371;-79
2021/04/30 13:12:20;;;;;;;;;;;10.10;70.60;;;;;;4303756;33;20018;-79
2021/04/30 13:14:57;;;;;;;;;;;10.10;70.60;;;;;;4302794;33;44999;-79
2021/04/30 13:17:29;;;;;;;;;;;10.10;70.60;;;;;;4302825;33;43778;-78
2021/04/30 13:20:15;;;;;;;;;;;10.10;70.50;;;;;;4290469;33;31729;-79
2021/04/30 13:22:56;;;;;;;;;;;10.10;70.50;;;;;;4303756;33;20025;-78
2021/04/30 13:25:49;;;;;;;;;;;10.20;70.50;;;;;;4293255;33;20018;-79
2021/04/30 13:28:19;;;;;;;;;;;10.20;70.60;;;;;;4288897;33;44709;-78
2021/04/30 13:30:50;;;;;;;;;;;10.20;70.70;;;;;;4302311;33;42906;-78
2021/04/30 13:33:46;;;;;;;;;;;10.20;70.70;;;;;;4290648;33;20002;-78
2021/04/30 13:36:15;;;;;;;;;;;10.30;70.80;;;;;;4293827;33;20017;-78
2021/04/30 13:38:41;;;;;;;;;;;10.30;70.60;;;;;;4290519;33;20014;-78
2021/04/30 13:41:25;;;;;;;;;;;10.30;70.50;;;;;;4303744;33;20018;-78
2021/04/30 13:43:55;;;;;;;;;;;10.40;70.40;;;;;;4302940;33;39554;-79
2021/04/30 13:46:25;;;;;;;;;;;10.40;70.40;;;;;;4302775;33;39413;-79
2021/04/30 13:48:58;;;;;;;;;;;10.50;70.50;;;;;;4290221;33;20050;-80
2021/04/30 13:51:27;;;;;;;;;;;10.50;70.40;;;;;;4278824;33;20018;-79
2021/04/30 13:53:57;;;;;;;;;;;10.50;70.40;;;;;;4303512;33;20037;-80
2021/04/30 13:56:30;;;;;;;;;;;10.50;70.30;;;;;;4291086;33;20412;-79
2021/04/30 13:59:03;;;;;;;;;;;10.60;70.00;;;;;;4302961;33;20091;-79
2021/04/30 14:01:35;;;;;;;;;;;10.60;69.40;;;;;;4290124;33;20069;-79
2021/04/30 14:04:08;;;;;;;;;;;10.60;69.30;;;;;;4289818;33;20018;-79
2021/04/30 14:06:44;;;;;;;;;;;10.70;69.10;;;;;;4289140;33;42616;-79
2021/04/30 14:09:13;;;;;;;;;;;10.70;69.10;;;;;;4288972;33;46973;-79
2021/04/30 14:11:46;;;;;;;;;;;10.70;69.20;;;;;;4278456;33;20052;-79
2021/04/30 14:14:18;;;;;;;;;;;10.70;69.30;;;;;;4278199;33;19998;-79
2021/04/30 14:16:51;;;;;;;;;;;10.80;69.40;;;;;;4277485;33;31845;-79
2021/04/30 14:19:24;;;;;;;;;;;10.80;69.20;;;;;;4277320;33;41743;-79
2021/04/30 14:21:55;;;;;;;;;;;10.90;68.90;;;;;;4303355;33;20010;-79
2021/04/30 14:24:26;;;;;;;;;;;10.90;68.70;;;;;;4290364;33;20447;-79
2021/04/30 14:26:56;;;;;;;;;;;10.90;68.60;;;;;;4289893;33;20010;-79
2021/04/30 14:29:26;;;;;;;;;;;11.00;68.60;;;;;;4290625;33;20062;-79
2021/04/30 14:31:58;;;;;;;;;;;11.00;68.50;;;;;;4303380;33;20384;-79
2021/04/30 14:34:31;;;;;;;;;;;11.00;68.60;;;;;;4289088;33;36194;-80
2021/04/30 14:37:18;;;;;;;;;;;11.00;68.50;;;;;;4279900;33;20036;-80
2021/04/30 14:39:44;;;;;;;;;;;11.10;68.30;;;;;;4288848;33;38139;-79
2021/04/30 14:42:14;;;;;;;;;;;11.10;67.80;;;;;;4301780;33;44641;-79
2021/04/30 14:44:46;;;;;;;;;;;11.20;68.30;;;;;;4301846;33;43599;-79
2021/04/30 14:47:19;;;;;;;;;;;11.20;68.10;;;;;;4301518;33;43673;-79
2021/04/30 14:49:57;;;;;;;;;;;11.20;68.00;;;;;;4302707;33;20018;-79
2021/04/30 14:52:28;;;;;;;;;;;11.20;67.80;;;;;;4302200;33;29709;-79
2021/04/30 14:54:57;;;;;;;;;;;11.20;67.70;;;;;;4289897;33;20007;-79
2021/04/30 14:57:29;;;;;;;;;;;11.20;67.70;;;;;;4302965;33;20045;-79
2021/04/30 14:59:59;;;;;;;;;;;11.30;67.60;;;;;;4302026;33;35628;-79
2021/04/30 15:02:30;;;;;;;;;;;11.30;67.50;;;;;;4289194;33;20021;-78
2021/04/30 15:05:02;;;;;;;;;;;11.30;68.00;;;;;;4301475;33;44247;-79